Time;durP1;ratioP1;P1;durP2;ratioP2;P2;SDS_P1;SDS_P2;PMS_P1;PMS_P2;Temp;Humidity;BMP_temperature;BMP_pressure;BME280_temperature;BME280_humidity;BME280_pressure;Samples;Min_cycle;Max_cycle;Signal;HPM_P1;HPM_P2
2022/06/08 00:00:58;;;;;;;7.70;3.03;;;17.80;26.90;;;17.95;56.03;100514.34;5001808;28;20442;-73
2022/06/08 00:03:34;;;;;;;3.73;3.33;;;17.80;27.80;;;17.95;56.15;100514.34;4983711;28;20504;-74
2022/06/08 00:06:06;;;;;;;4.27;3.33;;;17.80;27.80;;;17.98;55.99;100513.00;5013677;28;20440;-73
2022/06/08 00:08:35;;;;;;;4.00;3.37;;;17.80;27.10;;;17.98;55.80;100513.00;5013763;28;20541;-72
2022/06/08 00:11:04;;;;;;;4.17;2.80;;;17.80;26.70;;;17.95;55.67;100514.34;5014651;28;20479;-73
2022/06/08 00:13:34;;;;;;;4.13;3.73;;;17.80;26.00;;;17.95;55.33;100510.78;5012395;28;20441;-74
2022/06/08 00:16:07;;;;;;;5.50;4.27;;;17.80;25.30;;;17.92;55.21;100511.28;5014193;28;20411;-74
2022/06/08 00:18:36;;;;;;;5.90;3.73;;;17.80;25.00;;;17.90;55.55;100510.75;5014521;28;20436;-72
2022/06/08 00:21:07;;;;;;;4.10;3.70;;;17.80;25.60;;;17.87;55.56;100508.50;5014611;28;20490;-73
2022/06/08 00:23:38;;;;;;;4.47;3.30;;;17.70;25.60;;;17.89;56.29;100503.59;5014075;28;20438;-73
2022/06/08 00:26:07;;;;;;;3.33;3.03;;;17.80;27.60;;;17.88;56.17;100504.69;5014870;28;20809;-72
2022/06/08 00:28:37;;;;;;;4.37;3.90;;;17.70;27.40;;;17.86;56.27;100504.97;5014235;28;20447;-73
2022/06/08 00:31:06;;;;;;;4.13;3.73;;;17.70;27.60;;;17.89;56.23;100511.81;4993096;28;20473;-73
2022/06/08 00:33:35;;;;;;;4.10;3.70;;;17.80;28.20;;;17.88;56.33;100510.16;5013249;28;20602;-73
2022/06/08 00:36:06;;;;;;;7.57;3.30;;;17.70;28.20;;;17.87;56.19;100512.06;5021133;28;20525;-74
2022/06/08 00:38:36;;;;;;;5.20;3.33;;;17.70;28.30;;;17.84;56.05;100511.78;4992901;28;20826;-73
2022/06/08 00:41:27;;;;;;;3.30;2.60;;;17.70;27.40;;;17.76;56.28;100513.06;5029209;22;20422;-71
2022/06/08 00:43:58;;;;;;;3.33;2.90;;;17.60;27.50;;;17.66;56.18;100511.06;5028411;28;20439;-71
2022/06/08 00:46:27;;;;;;;3.10;2.80;;;17.60;27.60;;;17.62;56.56;100509.91;5031724;28;20425;-72
2022/06/08 00:49:03;;;;;;;3.60;3.10;;;17.50;27.80;;;17.52;56.45;100509.78;5031192;28;20452;-71
2022/06/08 00:51:34;;;;;;;3.57;3.27;;;17.50;27.70;;;17.46;57.16;100507.25;5012856;28;20439;-72
2022/06/08 00:54:11;;;;;;;6.43;4.50;;;17.40;29.10;;;17.35;57.15;100498.91;5031109;28;20402;-72
2022/06/08 00:56:48;;;;;;;3.87;3.57;;;17.30;29.20;;;17.28;57.15;100509.22;5030535;28;20996;-71
2022/06/08 00:59:17;;;;;;;6.70;5.33;;;17.20;29.40;;;17.22;57.21;100503.97;5031144;28;20421;-71
2022/06/08 01:01:47;;;;;;;5.20;4.27;;;17.20;30.00;;;17.22;57.58;100501.22;5030457;28;20980;-72
2022/06/08 01:04:19;;;;;;;5.10;3.27;;;17.20;30.90;;;17.57;56.63;100507.06;5012094;28;20448;-72
2022/06/08 01:06:59;;;;;;;8.43;3.70;;;17.40;30.60;;;17.52;57.22;100504.31;5011572;28;20542;-71
2022/06/08 01:09:36;;;;;;;4.90;4.00;;;17.40;31.20;;;17.48;57.67;100502.31;5012504;28;20551;-71
2022/06/08 01:12:15;;;;;;;6.03;4.03;;;17.40;32.80;;;17.50;57.56;100497.44;5024606;28;20464;-72
2022/06/08 01:14:50;;;;;;;5.93;4.50;;;17.40;32.60;;;17.51;57.82;100502.66;5012567;28;20423;-73
2022/06/08 01:17:21;;;;;;;4.67;3.80;;;17.40;34.50;;;17.49;58.01;100496.59;5009608;28;20458;-71
2022/06/08 01:19:55;;;;;;;5.23;4.13;;;17.40;35.50;;;17.37;58.60;100495.94;5011975;28;20466;-73
2022/06/08 01:22:30;;;;;;;4.80;4.30;;;17.30;37.20;;;17.28;58.46;100492.00;5012273;28;21005;-70
2022/06/08 01:24:59;;;;;;;3.77;3.37;;;17.20;37.80;;;17.25;58.65;100487.03;5022107;28;21110;-73
2022/06/08 01:27:56;;;;;;;5.17;4.13;;;17.20;39.00;;;17.22;58.62;100488.38;5007494;28;20463;-72
2022/06/08 01:30:31;;;;;;;6.53;4.00;;;17.10;38.90;;;17.21;59.08;100475.78;5032372;28;20501;-72
2022/06/08 01:33:49;;;;;;;4.43;4.03;;;17.10;42.50;;;17.18;59.18;100483.69;5030803;28;20471;-72
2022/06/08 01:36:58;;;;;;;4.30;3.87;;;17.10;44.30;;;17.06;60.01;100485.72;5028013;28;20706;-72
2022/06/08 01:39:50;;;;;;;6.73;5.27;;;17.00;49.00;;;16.88;60.12;100476.75;5030334;28;20433;-72
2022/06/08 01:42:54;;;;;;;5.27;3.77;;;16.90;49.10;;;16.70;61.32;100478.97;5027394;28;20454;-72
2022/06/08 01:45:43;;;;;;;7.77;4.33;;;16.80;56.90;;;16.55;61.63;100476.81;5028542;28;20451;-72
2022/06/08 01:48:42;;;;;;;7.90;5.30;;;16.60;61.20;;;16.44;61.84;100477.75;5029651;28;20494;-72
2022/06/08 01:51:29;;;;;;;5.30;4.73;;;16.50;67.40;;;16.34;62.36;100472.13;5029757;28;20460;-72
2022/06/08 01:54:12;;;;;;;5.70;4.23;;;16.40;74.80;;;16.24;62.63;100474.69;5029528;28;21069;-71
2022/06/08 01:56:51;;;;;;;5.07;4.20;;;16.30;78.80;;;16.35;62.72;100476.50;5023029;28;20468;-71
2022/06/08 01:59:39;;;;;;;4.80;4.13;;;16.30;82.50;;;16.35;62.12;100471.88;5006250;28;20456;-71
2022/06/08 02:02:19;;;;;;;4.43;4.03;;;16.40;77.30;;;16.20;62.42;100468.09;5012997;28;20443;-71
2022/06/08 02:04:58;;;;;;;4.63;4.20;;;16.30;79.00;;;16.09;63.02;100462.47;4999058;28;20445;-71
2022/06/08 02:07:37;;;;;;;7.97;6.70;;;16.20;86.10;;;16.13;63.23;100467.41;5011890;28;20632;-72
2022/06/08 02:10:20;;;;;;;5.77;4.20;;;16.10;89.50;;;16.24;63.41;100470.06;5029248;28;20456;-72
2022/06/08 02:12:59;;;;;;;4.50;3.60;;;16.20;91.70;;;16.37;63.43;100468.88;5027791;28;20472;-71
2022/06/08 02:15:43;;;;;;;4.80;4.30;;;16.30;92.00;;;16.29;63.28;100469.31;5005645;28;20458;-72
2022/06/08 02:18:22;;;;;;;10.73;4.60;;;16.20;91.30;;;16.19;64.02;100466.41;5025002;28;20448;-71
2022/06/08 02:20:59;;;;;;;7.77;4.80;;;16.20;94.20;;;16.05;64.18;100468.66;5029110;28;20438;-71
2022/06/08 02:23:41;;;;;;;6.13;4.10;;;16.10;94.50;;;15.94;64.46;100469.56;5010726;28;20789;-71
2022/06/08 02:26:16;;;;;;;5.50;4.50;;;16.00;95.70;;;15.94;64.51;100475.84;5010966;28;20421;-72
2022/06/08 02:28:55;;;;;;;6.13;4.40;;;16.00;96.00;;;15.95;64.21;100480.25;5028304;28;20970;-71
2022/06/08 02:31:32;;;;;;;7.90;5.53;;;16.00;94.80;;;15.91;64.20;100475.53;5022612;28;20550;-71
2022/06/08 02:34:31;;;;;;;10.30;4.57;;;15.90;94.70;;;15.91;64.00;100475.53;5010890;28;20539;-71
2022/06/08 02:37:13;;;;;;;5.83;4.20;;;15.90;95.00;;;16.03;64.02;100470.81;5026850;28;20968;-72
2022/06/08 02:39:49;;;;;;;6.60;4.50;;;15.90;95.20;;;16.22;63.33;100471.38;5015427;28;20494;-73
2022/06/08 02:42:24;;;;;;;6.30;4.60;;;16.10;94.40;;;16.37;62.79;100477.06;5010847;28;20478;-71
2022/06/08 02:45:01;;;;;;;11.13;4.47;;;16.20;92.30;;;16.47;62.52;100485.41;4995961;28;20451;-72
2022/06/08 02:47:36;;;;;;;6.67;4.77;;;16.30;91.80;;;16.94;61.18;100483.91;5010870;28;20443;-71
2022/06/08 02:50:15;;;;;;;4.67;3.80;;;16.60;86.60;;;17.12;60.87;100490.16;5010773;28;20442;-71
2022/06/08 02:52:47;;;;;;;7.70;5.00;;;16.90;80.20;;;17.05;60.92;100476.69;5026781;28;20448;-71
2022/06/08 02:55:28;;;;;;;5.30;4.20;;;16.90;75.20;;;16.99;60.81;100476.88;5010879;28;20795;-71
2022/06/08 02:58:09;;;;;;;5.30;4.80;;;16.90;73.10;;;16.97;61.21;100479.88;5009586;28;20471;-71
2022/06/08 03:00:48;;;;;;;5.67;4.33;;;16.80;78.60;;;16.93;61.28;100474.09;5012333;28;20444;-71
2022/06/08 03:03:28;;;;;;;4.63;4.20;;;16.80;77.70;;;17.01;61.00;100474.72;5012660;28;20444;-72
2022/06/08 03:06:07;;;;;;;8.43;4.90;;;16.90;74.60;;;17.01;60.64;100469.25;5012176;28;20463;-72
2022/06/08 03:08:42;;;;;;;6.57;4.70;;;16.90;71.70;;;16.98;60.78;100469.75;5028549;28;20471;-72
2022/06/08 03:11:12;;;;;;;5.00;4.60;;;16.90;70.20;;;16.98;61.02;100475.22;5025273;28;20491;-71
2022/06/08 03:13:46;;;;;;;5.97;5.47;;;16.90;70.40;;;16.94;61.05;100470.25;5027507;28;20736;-71
2022/06/08 03:16:29;;;;;;;5.47;4.80;;;16.90;70.90;;;17.03;60.78;100475.28;5010729;28;20478;-71
2022/06/08 03:19:00;;;;;;;10.87;5.17;;;17.00;69.60;;;16.99;60.85;100471.41;5008382;28;20444;-71
2022/06/08 03:21:32;;;;;;;4.90;3.93;;;17.00;69.50;;;16.90;61.13;100469.13;5004860;28;20886;-71
2022/06/08 03:24:01;;;;;;;5.73;3.90;;;16.80;71.60;;;16.98;60.95;100469.75;4993734;28;20528;-71
2022/06/08 03:26:41;;;;;;;4.20;3.80;;;16.90;71.60;;;17.06;60.76;100469.31;5002800;28;20451;-72
2022/06/08 03:29:11;;;;;;;5.20;4.00;;;16.90;71.20;;;17.10;60.49;100470.44;5028034;28;20903;-71
2022/06/08 03:31:41;;;;;;;5.67;4.20;;;16.90;69.30;;;17.25;60.08;100476.09;5028278;28;20806;-71
2022/06/08 03:34:10;;;;;;;5.80;4.73;;;17.00;68.10;;;17.66;58.82;100472.75;5010623;28;20679;-71
2022/06/08 03:36:39;;;;;;;5.47;4.17;;;17.30;61.20;;;18.13;57.74;100461.94;5010724;28;20462;-72
2022/06/08 03:39:11;;;;;;;7.43;3.70;;;17.50;58.60;;;19.67;53.83;100473.38;5010708;28;20411;-71
2022/06/08 03:41:40;;;;;;;4.87;4.13;;;18.40;46.50;;;21.31;49.57;100468.19;5010360;28;20454;-71
2022/06/08 03:44:13;;;;;;;4.47;4.03;;;19.20;33.90;;;22.85;46.25;100477.41;5010026;28;20430;-71
2022/06/08 03:46:51;;;;;;;4.77;3.73;;;20.10;27.70;;;24.04;43.57;100471.66;5031953;28;20431;-72
2022/06/08 03:49:24;;;;;;;5.50;4.80;;;21.00;20.60;;;24.49;42.39;100467.28;5022298;28;20966;-72
2022/06/08 03:51:57;;;;;;;4.47;3.80;;;21.40;17.00;;;25.03;41.38;100468.47;5028900;28;20430;-71
2022/06/08 03:54:36;;;;;;;3.80;3.50;;;21.90;14.80;;;25.00;41.23;100471.84;5026871;28;20573;-72
2022/06/08 03:57:08;;;;;;;4.60;4.20;;;22.10;12.20;;;25.13;40.71;100467.44;5013294;28;20430;-72
2022/06/08 03:59:41;;;;;;;4.67;3.70;;;22.30;10.70;;;25.93;40.13;100471.16;5013603;28;20472;-72
2022/06/08 04:02:14;;;;;;;5.30;4.33;;;22.60;10.10;;;26.46;38.12;100475.13;5013071;28;20458;-72
2022/06/08 04:04:46;;;;;;;5.90;3.53;;;22.80;7.80;;;25.04;40.37;100472.88;5010609;28;20447;-72
2022/06/08 04:07:15;;;;;;;4.80;3.60;;;22.60;7.00;;;24.00;42.03;100467.03;5014344;28;20444;-72
2022/06/08 04:09:48;;;;;;;5.03;3.60;;;22.30;7.30;;;25.47;39.92;100471.38;5007369;28;20435;-72
2022/06/08 04:12:22;;;;;;;4.60;3.40;;;22.50;7.20;;;26.73;37.68;100470.19;5003433;28;20794;-72
2022/06/08 04:14:52;;;;;;;8.03;3.40;;;22.90;6.00;;;27.00;36.89;100474.75;5008400;28;20449;-72
2022/06/08 04:17:23;;;;;;;4.40;4.00;;;23.40;4.00;;;27.15;36.76;100477.09;5012119;28;20415;-72
2022/06/08 04:19:55;;;;;;;4.10;3.70;;;23.70;3.40;;;25.76;38.02;100478.50;5013601;28;20875;-72
2022/06/08 04:22:31;;;;;;;3.30;3.00;;;23.60;2.30;;;23.95;41.43;100475.41;5022652;28;20461;-72
2022/06/08 04:25:02;;;;;;;4.97;3.30;;;22.80;3.00;;;22.61;43.82;100471.03;5008955;28;20531;-72
2022/06/08 04:27:34;;;;;;;5.13;3.20;;;22.00;4.40;;;21.65;46.92;100477.34;5013329;28;20443;-71
2022/06/08 04:30:08;;;;;;;7.60;3.43;;;21.20;7.10;;;21.01;48.33;100472.69;5013105;28;20851;-72
2022/06/08 04:32:39;;;;;;;4.70;3.00;;;20.60;9.50;;;20.68;48.72;100473.34;5012321;28;21136;-70
2022/06/08 04:35:09;;;;;;;4.67;3.00;;;20.20;10.10;;;20.55;48.81;100477.53;5030793;28;20929;-71
2022/06/08 04:37:39;;;;;;;4.87;3.23;;;20.00;11.30;;;20.40;48.92;100463.81;5030374;28;20440;-71
2022/06/08 04:40:12;;;;;;;6.03;3.33;;;19.70;11.70;;;20.38;48.93;100461.31;5012868;28;20480;-71
2022/06/08 04:42:43;;;;;;;3.87;3.03;;;19.60;11.90;;;22.60;45.12;100466.66;5013061;28;20458;-72
2022/06/08 04:45:13;;;;;;;6.30;3.50;;;20.20;11.50;;;25.34;39.47;100461.16;5013710;28;20610;-71
2022/06/08 04:47:43;;;;;;;3.37;2.77;;;21.30;8.40;;;27.39;36.18;100471.09;5015631;28;20547;-73
2022/06/08 04:50:15;;;;;;;3.23;2.93;;;22.40;6.30;;;28.83;33.84;100462.13;5030364;28;20438;-73
2022/06/08 04:52:45;;;;;;;3.53;3.17;;;23.50;3.10;;;28.58;33.42;100460.22;5014455;28;20580;-72
2022/06/08 04:55:17;;;;;;;5.00;2.70;;;24.30;1.00;;;26.29;36.96;100465.56;5034984;28;20459;-71
2022/06/08 04:57:48;;;;;;;3.50;2.90;;;24.10;1.00;;;24.54;39.49;100461.69;5022421;28;20440;-71
2022/06/08 05:00:21;;;;;;;3.13;2.83;;;23.20;1.00;;;23.46;41.34;100460.13;5017569;28;20485;-71
2022/06/08 05:02:55;;;;;;;3.00;2.60;;;22.60;1.30;;;23.12;42.53;100467.72;5044605;28;20958;-71
2022/06/08 05:05:35;;;;;;;4.27;2.70;;;22.20;2.50;;;23.18;42.63;100464.63;5030056;28;20455;-72
2022/06/08 05:08:08;;;;;;;4.10;3.03;;;22.00;3.30;;;24.23;40.34;100464.16;5018730;28;20501;-72
2022/06/08 05:10:40;;;;;;;2.67;2.47;;;22.20;3.00;;;24.50;39.94;100460.63;5021404;28;20463;-71
2022/06/08 05:13:14;;;;;;;2.90;2.53;;;22.70;2.00;;;23.71;41.19;100467.22;5009308;28;20488;-72
2022/06/08 05:15:47;;;;;;;2.50;2.30;;;22.40;2.10;;;23.46;41.78;100454.59;5012513;28;20529;-72
2022/06/08 05:18:20;;;;;;;6.97;2.77;;;22.20;2.50;;;22.91;43.78;100458.88;5011998;28;20831;-72
2022/06/08 05:20:53;;;;;;;3.00;2.70;;;21.90;4.00;;;22.38;44.64;100471.81;5012663;28;20419;-72
2022/06/08 05:23:30;;;;;;;7.63;4.03;;;21.90;4.30;;;21.70;46.09;100458.03;5008753;28;20477;-72
2022/06/08 05:26:02;;;;;;;4.93;3.07;;;21.60;4.70;;;21.17;47.51;100457.81;5012271;28;20418;-72
2022/06/08 05:28:32;;;;;;;4.07;3.10;;;21.00;5.90;;;22.71;45.42;100464.63;5005730;28;20448;-72
2022/06/08 05:31:03;;;;;;;4.10;2.73;;;21.10;7.90;;;25.49;40.32;100462.75;5010527;28;20977;-71
2022/06/08 05:33:38;;;;;;;3.27;2.00;;;22.50;5.40;;;26.82;37.42;100459.13;5011529;28;20453;-72
2022/06/08 05:36:16;;;;;;;9.53;3.00;;;23.60;2.60;;;25.35;39.10;100451.72;5005864;28;20448;-72
2022/06/08 05:38:47;;;;;;;3.20;2.50;;;24.10;1.00;;;23.63;42.52;100449.34;5011295;28;20434;-72
2022/06/08 05:41:16;;;;;;;6.33;2.73;;;23.10;2.10;;;22.57;44.89;100456.19;5000790;28;20942;-72
2022/06/08 05:43:45;;;;;;;3.23;2.50;;;22.40;3.50;;;22.16;45.90;100454.97;5011569;28;20487;-72
2022/06/08 05:46:16;;;;;;;4.03;2.47;;;21.70;4.60;;;21.98;46.13;100451.78;5029106;28;20411;-72
2022/06/08 05:48:50;;;;;;;2.83;2.63;;;21.50;6.00;;;21.87;46.33;100452.16;5011560;28;20452;-71
2022/06/08 05:51:18;;;;;;;6.30;3.07;;;21.40;6.20;;;21.63;46.97;100457.56;5011376;28;21013;-71
2022/06/08 05:53:48;;;;;;;3.40;2.80;;;21.10;6.80;;;21.71;46.58;100456.94;5009429;28;20423;-72
2022/06/08 05:56:19;;;;;;;3.90;3.20;;;21.20;7.00;;;21.80;47.12;100457.97;5028734;28;20836;-72
2022/06/08 05:58:50;;;;;;;3.43;3.10;;;21.20;7.50;;;22.26;46.19;100461.22;5013873;28;20551;-71
2022/06/08 06:01:19;;;;;;;5.93;3.40;;;21.40;7.40;;;22.61;45.47;100460.00;5006084;28;20529;-71
2022/06/08 06:03:52;;;;;;;3.40;3.00;;;21.60;7.10;;;22.99;44.92;100469.28;5008078;28;20525;-72
2022/06/08 06:06:22;;;;;;;3.20;2.90;;;21.90;6.80;;;23.13;44.41;100461.91;5011482;28;20419;-70
2022/06/08 06:08:51;;;;;;;3.40;2.40;;;22.00;6.40;;;23.04;45.03;100469.22;5011492;28;20422;-71
2022/06/08 06:11:22;;;;;;;2.20;2.00;;;22.30;6.40;;;22.94;45.78;100461.88;5010897;28;20461;-71
2022/06/08 06:13:52;;;;;;;3.80;2.70;;;22.20;6.80;;;22.80;45.77;100469.19;4998250;28;20419;-72
2022/06/08 06:16:22;;;;;;;3.13;2.30;;;22.00;6.60;;;22.49;46.32;100462.34;5028257;28;20447;-72
2022/06/08 06:18:56;;;;;;;3.80;2.90;;;21.90;6.60;;;22.24;46.67;100459.84;5027462;28;20494;-71
2022/06/08 06:21:33;;;;;;;3.93;2.70;;;21.70;7.10;;;22.18;47.41;100460.97;4999005;28;20523;-71
2022/06/08 06:24:15;;;;;;;3.10;2.80;;;21.50;8.10;;;22.27;47.41;100457.31;5028518;28;20908;-71
2022/06/08 06:27:04;;;;;;;4.30;2.70;;;21.60;8.60;;;22.45;47.41;100453.03;5017811;28;20856;-71
2022/06/08 06:29:51;;;;;;;3.50;3.20;;;21.80;8.60;;;22.61;46.49;100462.75;5042780;22;20995;-70
2022/06/08 06:32:37;;;;;;;3.83;3.33;;;21.90;7.80;;;22.65;46.48;100461.09;5007953;28;20491;-70
2022/06/08 06:35:17;;;;;;;3.90;3.50;;;22.20;7.50;;;22.90;45.91;100458.03;5021267;28;20446;-70
2022/06/08 06:37:47;;;;;;;3.23;3.00;;;22.40;7.00;;;23.19;45.79;100459.91;5013157;28;20430;-70
2022/06/08 06:40:17;;;;;;;3.40;3.10;;;22.50;7.20;;;23.41;45.84;100462.91;5027699;28;20488;-71
2022/06/08 06:42:47;;;;;;;3.60;3.20;;;22.50;7.30;;;23.59;44.83;100464.06;5028038;28;20484;-71
2022/06/08 06:45:51;;;;;;;3.90;3.03;;;22.60;6.70;;;23.95;44.03;100456.06;5016372;28;21092;-69
2022/06/08 06:48:30;;;;;;;3.10;2.90;;;23.10;6.00;;;23.97;44.04;100448.25;5010510;28;21048;-69
2022/06/08 06:51:05;;;;;;;4.57;3.40;;;23.30;5.40;;;24.21;43.81;100457.28;5005903;28;20481;-71
2022/06/08 06:53:35;;;;;;;4.00;3.07;;;23.40;5.00;;;24.36;43.45;100451.47;5024651;28;20895;-70
2022/06/08 06:56:06;;;;;;;2.70;2.50;;;23.50;5.00;;;24.62;42.79;100454.59;5005957;28;20535;-70
2022/06/08 06:58:50;;;;;;;2.97;2.70;;;23.70;4.30;;;24.62;43.15;100444.34;5026907;28;20451;-71
2022/06/08 07:01:21;;;;;;;7.10;5.23;;;23.80;4.50;;;24.78;42.99;100449.59;5009653;28;20824;-70
2022/06/08 07:03:50;;;;;;;5.03;2.97;;;24.00;4.20;;;24.95;42.62;100452.59;5009060;28;21056;-69
2022/06/08 07:06:21;;;;;;;3.20;2.90;;;24.30;3.70;;;24.98;42.88;100452.00;5028661;28;20598;-70
2022/06/08 07:08:50;;;;;;;5.90;2.63;;;24.30;3.60;;;25.44;41.74;100455.38;5020470;28;20438;-70
2022/06/08 07:11:35;;;;;;;3.60;2.97;;;24.80;2.80;;;25.38;41.48;100451.09;5016381;28;20462;-71
2022/06/08 07:14:17;;;;;;;3.50;2.63;;;24.60;2.00;;;25.15;42.32;100446.63;5001522;28;20457;-73
2022/06/08 07:16:49;;;;;;;3.90;3.10;;;24.50;3.10;;;25.12;42.02;100446.44;5010235;28;20418;-73
2022/06/08 07:19:27;;;;;;;3.80;3.03;;;24.70;2.40;;;24.93;42.71;100449.31;5010851;28;20461;-70
2022/06/08 07:21:57;;;;;;;4.53;2.77;;;24.40;2.50;;;25.15;42.49;100451.34;5009648;28;20460;-70
2022/06/08 07:24:33;;;;;;;4.63;2.73;;;24.50;3.00;;;25.26;42.34;100448.06;5024153;28;20457;-72
2022/06/08 07:27:05;;;;;;;3.37;2.67;;;24.40;2.90;;;25.11;42.36;100453.91;5030332;28;20848;-71
2022/06/08 07:29:34;;;;;;;3.97;2.87;;;24.50;2.40;;;24.86;42.93;100446.09;5031771;28;20440;-71
2022/06/08 07:32:04;;;;;;;4.70;2.77;;;24.10;2.70;;;24.81;43.12;100446.19;5031850;28;20442;-69
2022/06/08 07:34:34;;;;;;;6.80;3.90;;;23.90;3.30;;;24.83;43.41;100441.19;5031808;28;20506;-70
2022/06/08 07:37:05;;;;;;;3.40;3.00;;;23.90;3.90;;;24.78;43.06;100453.19;5028768;28;20454;-71
2022/06/08 07:39:35;;;;;;;3.40;2.00;;;23.90;3.60;;;25.02;42.99;100447.47;5033093;28;20414;-71
2022/06/08 07:42:05;;;;;;;4.43;2.60;;;24.20;3.50;;;25.01;42.79;100443.06;5031731;28;20427;-70
2022/06/08 07:44:35;;;;;;;3.50;3.20;;;24.30;3.20;;;25.01;43.19;100440.28;5030802;28;20398;-71
2022/06/08 07:47:04;;;;;;;5.30;2.23;;;24.40;3.40;;;24.58;43.79;100440.56;5031950;28;20417;-71
2022/06/08 07:49:39;;;;;;;4.73;2.50;;;24.30;3.20;;;24.46;43.96;100450.47;5032191;28;20510;-70
2022/06/08 07:52:13;;;;;;;2.83;2.30;;;24.10;3.30;;;24.86;44.04;100446.91;5031559;28;20748;-69
2022/06/08 07:54:44;;;;;;;3.50;3.20;;;24.10;4.00;;;25.63;42.15;100441.41;5026129;28;20440;-71
2022/06/08 07:57:17;;;;;;;2.37;2.00;;;24.50;3.90;;;25.59;41.46;100445.94;5030870;28;20435;-72
2022/06/08 07:59:48;;;;;;;4.30;2.47;;;24.90;2.10;;;25.66;42.21;100439.97;5026113;28;20784;-72
2022/06/08 08:02:18;;;;;;;2.20;1.83;;;24.90;2.50;;;25.46;42.05;100439.25;5031432;28;20434;-71
2022/06/08 08:04:48;;;;;;;2.97;2.47;;;25.00;2.20;;;25.29;42.47;100436.34;5031827;28;20970;-70
2022/06/08 08:07:23;;;;;;;3.10;2.53;;;24.70;2.30;;;25.47;42.98;100442.84;5012758;28;20802;-71
2022/06/08 08:09:53;;;;;;;1.97;1.80;;;24.80;3.00;;;25.94;41.67;100433.19;5032054;28;20410;-71
2022/06/08 08:12:23;;;;;;;3.77;2.70;;;25.20;2.00;;;25.73;41.47;100434.81;5030587;28;20584;-73
2022/06/08 08:14:52;;;;;;;3.80;2.43;;;25.20;1.50;;;25.67;42.69;100436.06;5026775;28;20440;-72
2022/06/08 08:17:21;;;;;;;3.90;2.30;;;25.00;2.80;;;25.80;41.69;100435.19;5031601;28;21055;-71
2022/06/08 08:19:50;;;;;;;2.93;2.37;;;25.10;1.70;;;25.87;42.24;100430.00;5032433;28;20427;-69
2022/06/08 08:22:20;;;;;;;2.07;1.73;;;25.20;2.00;;;25.69;41.81;100433.78;5033312;28;20465;-72
2022/06/08 08:24:52;;;;;;;3.27;2.37;;;25.10;1.60;;;25.50;42.97;100428.41;5030893;28;20500;-72
2022/06/08 08:27:21;;;;;;;3.17;2.80;;;25.00;2.60;;;25.68;42.62;100424.66;5023997;28;21083;-71
2022/06/08 08:29:51;;;;;;;2.40;2.20;;;25.00;3.00;;;25.73;42.44;100432.03;5031621;28;20444;-71
2022/06/08 08:32:20;;;;;;;2.70;1.70;;;25.00;2.70;;;25.45;42.23;100425.75;5012811;28;20959;-72
2022/06/08 08:34:48;;;;;;;2.67;2.13;;;25.10;1.40;;;25.20;43.47;100421.59;5025081;28;20497;-71
2022/06/08 08:37:17;;;;;;;2.80;2.60;;;25.00;2.60;;;25.02;43.26;100419.78;5030162;28;20428;-70
2022/06/08 08:39:46;;;;;;;2.43;2.23;;;25.00;2.20;;;24.43;44.68;100420.66;5030997;28;20424;-71
2022/06/08 08:42:22;;;;;;;3.13;2.83;;;24.50;2.70;;;24.27;45.23;100417.34;5029225;28;20438;-71
2022/06/08 08:44:57;;;;;;;2.70;2.50;;;24.10;3.90;;;24.19;45.35;100407.84;5024276;28;20551;-69
2022/06/08 08:47:42;;;;;;;2.67;1.90;;;23.80;4.30;;;24.17;45.48;100425.84;5028482;28;20496;-70
2022/06/08 08:50:21;;;;;;;2.73;2.53;;;23.80;4.90;;;24.33;45.54;100418.91;5030396;28;20691;-70
2022/06/08 08:53:01;;;;;;;2.00;1.57;;;23.80;5.20;;;24.96;43.95;100402.47;5029913;28;20454;-70
2022/06/08 08:55:41;;;;;;;2.47;1.93;;;24.30;4.30;;;25.66;43.12;100406.72;5023151;28;20428;-70
2022/06/08 08:58:17;;;;;;;2.60;2.00;;;24.90;3.90;;;25.84;42.62;100401.00;5029325;28;20418;-71
2022/06/08 09:00:52;;;;;;;1.87;1.57;;;25.20;3.10;;;26.14;41.15;100402.13;5030232;28;20439;-70
2022/06/08 09:03:29;;;;;;;2.80;1.70;;;25.30;1.30;;;26.40;41.09;100405.09;5027581;28;20442;-71
2022/06/08 09:06:14;;;;;;;2.30;1.67;;;25.50;1.10;;;26.72;39.72;100395.59;5006821;28;20422;-71
2022/06/08 09:08:46;;;;;;;1.67;1.47;;;26.00;1.00;;;25.85;41.78;100393.50;5021410;28;20791;-70
2022/06/08 09:11:22;;;;;;;2.13;1.93;;;25.60;1.00;;;25.01;43.11;100387.69;5030145;28;20456;-69
2022/06/08 09:13:57;;;;;;;2.73;1.77;;;25.00;1.00;;;24.84;43.26;100393.00;5029992;28;20463;-70
2022/06/08 09:16:35;;;;;;;3.50;2.10;;;24.40;1.90;;;24.54;43.81;100386.16;5026841;28;20485;-69
2022/06/08 09:19:30;;;;;;;2.20;1.93;;;24.30;2.10;;;24.51;44.45;100387.59;5024812;28;20442;-70
2022/06/08 09:22:21;;;;;;;1.90;1.70;;;24.10;3.10;;;24.80;44.10;100383.69;5012405;28;20438;-70
2022/06/08 09:24:55;;;;;;;2.37;2.00;;;24.30;3.30;;;24.66;43.78;100389.22;5029479;28;20847;-71
2022/06/08 09:27:29;;;;;;;1.80;1.60;;;24.10;2.70;;;24.93;43.56;100388.44;5029952;28;20402;-71
2022/06/08 09:30:16;;;;;;;2.43;1.90;;;24.40;2.50;;;24.90;43.08;100384.31;5028673;28;20446;-71
2022/06/08 09:32:50;;;;;;;2.17;1.73;;;24.40;2.40;;;24.99;43.57;100374.16;5028715;28;20468;-70
2022/06/08 09:35:26;;;;;;;3.00;2.07;;;24.50;2.60;;;25.10;43.38;100369.22;5026312;28;20429;-71
2022/06/08 09:38:00;;;;;;;2.93;2.50;;;24.60;2.60;;;25.42;42.75;100371.78;5025801;28;20773;-68
2022/06/08 09:40:38;;;;;;;3.90;2.43;;;24.80;2.30;;;25.61;42.49;100376.38;5025011;28;20418;-72
2022/06/08 09:43:52;;;;;;;2.53;2.10;;;24.90;2.20;;;25.79;42.33;100372.59;5027045;28;20413;-72
2022/06/08 09:52:56;;;;;;;2.70;2.10;;;24.80;1.00;;;25.96;41.73;100362.41;5011057;28;20475;-71
2022/06/08 09:55:41;;;;;;;7.00;2.03;;;25.00;1.40;;;26.38;41.22;100357.44;5025882;28;20414;-70
2022/06/08 09:58:44;;;;;;;2.47;2.27;;;25.40;1.50;;;26.48;40.29;100356.34;5011314;28;20657;-71
2022/06/08 10:01:30;;;;;;;2.50;2.23;;;25.60;1.00;;;26.63;40.60;100350.31;5029073;28;20471;-70
2022/06/08 10:04:40;;;;;;;2.63;2.40;;;25.80;1.00;;;26.96;39.38;100346.03;5029059;28;20482;-69
2022/06/08 10:07:19;;;;;;;2.27;2.07;;;26.40;1.00;;;27.70;38.24;100342.28;5029932;28;20474;-71
2022/06/08 10:10:22;;;;;;;1.97;1.77;;;26.90;1.00;;;27.54;38.83;100337.25;5026245;28;20831;-71
2022/06/08 10:12:58;;;;;;;2.10;1.90;;;26.80;1.00;;;27.60;38.98;100326.75;5024677;28;20540;-70
2022/06/08 10:15:35;;;;;;;2.10;1.90;;;27.10;1.00;;;27.82;37.99;100329.34;5029274;28;20767;-69
2022/06/08 10:18:17;;;;;;;3.60;2.47;;;27.10;1.00;;;27.50;38.21;100333.47;5028987;28;20424;-70
2022/06/08 10:20:54;;;;;;;2.40;1.83;;;27.20;1.00;;;26.93;38.75;100324.47;5025321;28;20445;-70
2022/06/08 10:23:34;;;;;;;2.00;1.80;;;26.50;1.00;;;27.49;38.20;100331.06;5023863;28;20470;-70
2022/06/08 10:26:13;;;;;;;2.30;1.70;;;26.90;1.00;;;27.88;37.15;100328.03;5010909;28;21139;-70
2022/06/08 10:28:49;;;;;;;2.93;1.90;;;27.30;1.00;;;27.94;37.38;100323.91;5021959;28;20434;-70
2022/06/08 10:31:30;;;;;;;2.77;1.90;;;27.50;1.00;;;28.25;37.08;100317.28;5016594;28;20494;-69
2022/06/08 10:34:15;;;;;;;2.60;2.00;;;27.60;1.00;;;28.69;36.18;100322.31;5022776;28;20472;-70
2022/06/08 10:36:51;;;;;;;2.80;1.93;;;28.00;1.00;;;28.34;37.07;100318.06;5001946;28;20968;-69
2022/06/08 10:39:21;;;;;;;2.53;1.70;;;27.80;1.00;;;27.96;37.53;100310.50;5028516;28;20402;-71
2022/06/08 10:45:37;;;;;;;2.10;1.80;;;27.50;1.00;;;27.58;36.73;100302.09;5020706;28;20424;-69
2022/06/08 10:48:46;;;;;;;1.87;1.40;;;27.00;1.00;;;27.39;38.20;100303.56;5028400;28;20435;-70
2022/06/08 10:51:41;;;;;;;2.00;1.80;;;26.60;1.00;;;27.42;37.98;100303.72;5026674;28;20970;-69
2022/06/08 10:54:57;;;;;;;3.23;1.80;;;27.00;1.00;;;27.32;38.42;100308.78;5027180;28;20463;-70
2022/06/08 10:57:47;;;;;;;1.63;1.40;;;26.60;1.00;;;26.95;38.98;100313.88;5016475;28;20483;-71
2022/06/08 11:01:07;;;;;;;3.40;1.80;;;26.50;1.00;;;26.86;39.30;100307.50;5029490;28;20471;-71
2022/06/08 11:03:59;;;;;;;2.13;1.33;;;26.20;1.00;;;27.57;37.55;100303.25;4987170;28;20451;-71
2022/06/08 11:07:02;;;;;;;6.60;1.80;;;26.70;1.00;;;27.97;37.62;100292.69;5030924;28;20428;-70